LFMI

Istres Le Tubé/Istres Air Base (BA 125) Airport

Airport
ICAO code
LFMI
Summary
ICAO Region
EUR
ICAO Territory
Location

, Provence-Alpes-Cote d'Azur

Serving
Istres
Elevation
82 ft
Coordinates
43° 31' 22" N , 4° 55' 26" E
Metar
Observation
LFMI 030200Z AUTO 03009KT CAVOK 06/04 Q1010 TEMPO VRB15G25KT 4000 RA
Station
Istres
Date/Time
2022-12-03 02:00:00
Wind direction
30°
Wind speed
09 kts
Lowest cloud amount
clouds and visibility OK
Temperature
6°C
Dew point
4°C
Humidity
86%
QNH
1010 hPa
Weather condition
n/a

Runways

Designator Length Width Surface Rops
15/33 3750 60 ASP Yes/Yes

Airport map

Aerial View

SKYbrary Partners:

Safety knowledge contributed by: